Time;durP1;ratioP1;P1;durP2;ratioP2;P2;SDS_P1;SDS_P2;PMS_P1;PMS_P2;Temp;Humidity;BMP_temperature;BMP_pressure;BME280_temperature;BME280_humidity;BME280_pressure;Samples;Min_cycle;Max_cycle;Signal;HPM_P1;HPM_P2
2022/04/15 00:02:02;;;;;;;6.57;6.17;;;22.00;69.00;;;;;;5072335;28;20482;-46
2022/04/15 00:04:31;;;;;;;6.00;5.90;;;22.00;68.80;;;;;;5072032;28;20443;-47
2022/04/15 00:06:58;;;;;;;5.70;5.60;;;22.00;68.70;;;;;;5071785;28;20821;-47
2022/04/15 00:09:25;;;;;;;5.73;5.63;;;21.90;68.70;;;;;;5071824;28;20483;-46
2022/04/15 00:11:53;;;;;;;6.03;5.83;;;22.00;68.80;;;;;;5071900;28;20831;-48
2022/04/15 00:14:20;;;;;;;6.40;6.30;;;22.00;69.50;;;;;;5071957;28;20505;-46
2022/04/15 00:16:49;;;;;;;5.80;5.70;;;21.90;68.90;;;;;;5071587;28;20927;-46
2022/04/15 00:19:15;;;;;;;6.47;6.27;;;21.90;68.90;;;;;;5071098;28;21087;-46
2022/04/15 00:21:43;;;;;;;5.83;5.73;;;21.90;68.90;;;;;;5071667;28;20467;-49
2022/04/15 00:24:09;;;;;;;6.07;5.90;;;21.90;68.90;;;;;;5072124;28;20540;-46
2022/04/15 00:26:36;;;;;;;5.70;5.60;;;21.90;69.20;;;;;;5071471;28;20830;-46
2022/04/15 00:29:06;;;;;;;6.40;6.20;;;21.90;69.20;;;;;;5071846;28;20443;-50
2022/04/15 00:31:33;;;;;;;5.90;5.80;;;21.90;69.00;;;;;;5071621;28;20472;-46
2022/04/15 00:34:01;;;;;;;6.20;6.00;;;21.80;69.00;;;;;;5071630;28;20447;-47
2022/04/15 00:36:29;;;;;;;6.37;6.23;;;21.80;69.00;;;;;;5071320;28;20443;-47
2022/04/15 00:38:55;;;;;;;5.77;5.67;;;21.80;68.90;;;;;;5071559;28;20451;-48
2022/04/15 00:41:22;;;;;;;6.17;6.00;;;21.80;68.80;;;;;;5071495;28;20444;-46
2022/04/15 00:43:53;;;;;;;6.27;5.97;;;21.80;69.00;;;;;;5071741;28;20451;-47
2022/04/15 00:46:20;;;;;;;5.97;5.77;;;21.80;69.20;;;;;;5071316;28;20443;-46
2022/04/15 00:48:46;;;;;;;5.90;5.80;;;21.80;69.00;;;;;;5071620;28;20443;-46
2022/04/15 00:51:14;;;;;;;6.10;6.00;;;21.80;68.80;;;;;;5071260;28;20479;-46
2022/04/15 00:53:44;;;;;;;5.67;5.50;;;21.80;68.80;;;;;;5071449;28;20447;-46
2022/04/15 00:56:12;;;;;;;5.70;5.60;;;21.80;69.00;;;;;;5071220;28;20444;-46
2022/04/15 00:58:40;;;;;;;5.80;5.70;;;21.80;68.80;;;;;;5071189;28;20447;-50
2022/04/15 01:01:08;;;;;;;6.03;5.93;;;21.80;69.00;;;;;;5071414;28;20446;-48
2022/04/15 01:03:36;;;;;;;6.43;6.20;;;21.70;68.90;;;;;;5071300;28;20444;-49
2022/04/15 01:06:06;;;;;;;6.10;6.00;;;21.80;69.00;;;;;;5071169;28;20442;-47
2022/04/15 01:08:40;;;;;;;6.13;5.93;;;21.70;68.90;;;;;;5071596;28;20784;-48
2022/04/15 01:11:08;;;;;;;5.90;5.80;;;21.70;68.80;;;;;;5071186;28;20512;-49
2022/04/15 01:13:38;;;;;;;5.93;5.77;;;21.70;68.50;;;;;;5071289;28;20520;-47
2022/04/15 01:16:07;;;;;;;6.10;5.90;;;21.70;68.60;;;;;;5071042;28;20474;-48
2022/04/15 01:18:34;;;;;;;6.10;6.00;;;21.70;68.70;;;;;;5071167;28;20450;-48
2022/04/15 01:21:01;;;;;;;5.60;5.50;;;21.70;68.80;;;;;;5071137;28;20439;-47
2022/04/15 01:23:29;;;;;;;7.63;7.30;;;21.70;68.60;;;;;;5071074;28;20829;-46
2022/04/15 01:25:56;;;;;;;5.70;5.60;;;21.70;68.80;;;;;;5070870;28;20452;-47
2022/04/15 01:28:23;;;;;;;5.90;5.80;;;21.70;68.60;;;;;;5071138;28;20447;-46
2022/04/15 01:30:51;;;;;;;6.23;6.03;;;21.70;68.50;;;;;;5074468;28;20479;-49
2022/04/15 01:33:19;;;;;;;6.00;5.90;;;21.60;68.60;;;;;;5074835;28;20541;-51
2022/04/15 01:35:45;;;;;;;6.30;6.10;;;21.70;68.80;;;;;;5074904;28;20446;-47
2022/04/15 01:38:14;;;;;;;5.97;5.87;;;21.70;68.60;;;;;;5074997;28;20854;-46
2022/04/15 01:40:43;;;;;;;5.97;5.87;;;21.70;68.40;;;;;;5074927;28;20802;-47
2022/04/15 01:43:10;;;;;;;5.43;5.33;;;21.60;68.40;;;;;;5074909;28;20838;-53
2022/04/15 01:45:37;;;;;;;5.70;5.60;;;21.60;68.50;;;;;;5074687;28;20446;-51
2022/04/15 01:48:04;;;;;;;5.60;5.50;;;21.60;68.40;;;;;;5074657;28;20439;-48
2022/04/15 01:50:31;;;;;;;6.17;6.07;;;21.60;68.30;;;;;;5074945;28;20483;-49
2022/04/15 01:52:58;;;;;;;6.20;6.00;;;21.60;68.30;;;;;;5074533;28;20838;-49
2022/04/15 01:55:25;;;;;;;5.83;5.73;;;21.60;68.30;;;;;;5074513;28;20444;-51
2022/04/15 01:57:53;;;;;;;6.00;5.90;;;21.60;68.20;;;;;;5074579;28;20452;-50
2022/04/15 02:00:20;;;;;;;6.27;6.07;;;21.60;68.20;;;;;;5074384;28;20440;-48
2022/04/15 02:02:47;;;;;;;6.00;5.90;;;21.60;68.20;;;;;;5074341;28;20479;-47
2022/04/15 02:05:14;;;;;;;6.23;6.13;;;21.60;68.50;;;;;;5074557;28;20458;-51
2022/04/15 02:07:40;;;;;;;6.07;5.97;;;21.60;68.20;;;;;;5073972;28;20451;-47
2022/04/15 02:10:08;;;;;;;5.97;5.77;;;21.60;68.40;;;;;;5074141;28;20845;-46
2022/04/15 02:12:35;;;;;;;6.20;6.00;;;21.60;68.10;;;;;;5074213;28;20542;-50
2022/04/15 02:15:04;;;;;;;6.13;6.00;;;21.60;68.10;;;;;;5074178;28;20448;-46
2022/04/15 02:17:31;;;;;;;6.90;6.70;;;21.60;68.20;;;;;;5073903;28;20439;-47
2022/04/15 02:19:58;;;;;;;5.70;5.60;;;21.50;68.20;;;;;;5074063;28;20465;-49
2022/04/15 02:22:24;;;;;;;6.00;5.80;;;21.60;68.00;;;;;;5073875;28;20467;-47
2022/04/15 02:24:51;;;;;;;6.60;6.40;;;21.60;68.20;;;;;;5073979;28;20447;-46
2022/04/15 02:27:18;;;;;;;7.60;7.40;;;21.50;68.10;;;;;;5073607;28;20973;-46
2022/04/15 02:29:45;;;;;;;6.10;5.90;;;21.50;67.80;;;;;;5073795;28;21029;-46
2022/04/15 02:32:13;;;;;;;6.07;5.97;;;21.50;68.10;;;;;;5073791;28;20834;-46
2022/04/15 02:34:39;;;;;;;6.50;6.30;;;21.50;68.10;;;;;;5073718;28;20966;-47
2022/04/15 02:37:06;;;;;;;6.70;6.50;;;21.50;68.10;;;;;;5073719;28;20452;-46
2022/04/15 02:39:33;;;;;;;5.90;5.70;;;21.50;68.30;;;;;;5073872;28;20500;-49
2022/04/15 02:42:00;;;;;;;6.00;5.90;;;21.50;68.10;;;;;;5072699;28;20870;-46
2022/04/15 02:44:29;;;;;;;6.07;5.97;;;21.50;68.20;;;;;;5073572;28;20443;-45
2022/04/15 02:46:57;;;;;;;6.13;6.03;;;21.50;68.10;;;;;;5073312;28;20509;-47
2022/04/15 02:49:26;;;;;;;5.93;5.80;;;21.40;68.30;;;;;;5073507;28;20448;-47
2022/04/15 02:51:54;;;;;;;6.60;6.40;;;21.40;68.30;;;;;;5073239;28;20564;-49
2022/04/15 02:54:21;;;;;;;6.30;6.20;;;21.40;68.30;;;;;;5073408;28;20778;-46
2022/04/15 02:56:47;;;;;;;6.20;6.00;;;21.40;68.50;;;;;;5073446;28;20451;-46
2022/04/15 02:59:16;;;;;;;6.10;6.00;;;21.40;68.60;;;;;;5073383;28;20452;-46
2022/04/15 03:01:43;;;;;;;6.43;6.30;;;21.40;68.70;;;;;;5073187;28;20475;-45
2022/04/15 03:04:10;;;;;;;6.43;6.27;;;21.40;68.70;;;;;;5073318;28;20450;-46
2022/04/15 03:06:39;;;;;;;6.30;6.20;;;21.30;68.40;;;;;;5073016;28;20454;-46
2022/04/15 03:09:06;;;;;;;7.13;6.93;;;21.30;68.60;;;;;;5073111;28;20809;-46
2022/04/15 03:11:33;;;;;;;6.87;6.67;;;21.40;68.60;;;;;;5073030;28;20487;-45
2022/04/15 03:14:00;;;;;;;6.40;6.20;;;21.30;68.50;;;;;;5073257;28;20444;-46
2022/04/15 03:16:26;;;;;;;6.70;6.50;;;21.30;68.60;;;;;;5072813;28;20450;-46
2022/04/15 03:18:54;;;;;;;6.80;6.60;;;21.30;68.50;;;;;;5073174;28;20450;-46
2022/04/15 03:21:21;;;;;;;6.37;6.27;;;21.30;69.30;;;;;;5072716;28;20448;-45
2022/04/15 03:23:49;;;;;;;6.07;5.97;;;21.30;68.40;;;;;;5072835;28;20960;-45
2022/04/15 03:26:15;;;;;;;6.57;6.40;;;21.30;68.50;;;;;;5072638;28;20804;-47
2022/04/15 03:28:44;;;;;;;6.17;6.07;;;21.30;68.60;;;;;;5072708;28;20462;-46
2022/04/15 03:31:10;;;;;;;6.57;6.43;;;21.30;68.70;;;;;;5072603;28;20487;-46
2022/04/15 03:33:37;;;;;;;6.10;6.00;;;21.30;68.50;;;;;;5072634;28;20447;-48
2022/04/15 03:36:05;;;;;;;6.93;6.63;;;21.30;68.40;;;;;;5072616;28;20448;-48
2022/04/15 03:38:31;;;;;;;6.83;6.53;;;21.30;68.50;;;;;;5072566;28;20447;-48
2022/04/15 03:40:59;;;;;;;5.90;5.80;;;21.30;68.70;;;;;;5072452;28;20436;-46
2022/04/15 03:43:26;;;;;;;6.30;6.20;;;21.30;68.60;;;;;;5072395;28;20496;-46
2022/04/15 03:45:53;;;;;;;6.77;6.57;;;21.30;68.50;;;;;;5072240;28;20938;-46
2022/04/15 03:48:20;;;;;;;6.70;6.50;;;21.30;68.60;;;;;;5072435;28;20926;-46
2022/04/15 03:50:46;;;;;;;6.80;6.50;;;21.20;68.50;;;;;;5072258;28;20917;-46
2022/04/15 03:53:13;;;;;;;6.20;6.10;;;21.20;68.60;;;;;;5072092;28;20463;-48
2022/04/15 03:55:40;;;;;;;6.00;5.90;;;21.20;68.70;;;;;;5072221;28;20448;-46
2022/04/15 03:58:08;;;;;;;7.07;6.87;;;21.20;68.70;;;;;;5072084;28;20446;-46
2022/04/15 04:00:35;;;;;;;6.20;6.00;;;21.20;68.60;;;;;;5072205;28;20817;-47
2022/04/15 04:03:02;;;;;;;6.80;6.60;;;21.20;68.90;;;;;;5071964;28;20479;-47
2022/04/15 04:05:29;;;;;;;6.63;6.53;;;21.20;68.70;;;;;;5071845;28;20811;-47
2022/04/15 04:07:55;;;;;;;6.87;6.70;;;21.10;68.80;;;;;;5072204;28;20447;-46
2022/04/15 04:10:22;;;;;;;7.10;6.93;;;21.20;69.00;;;;;;5071833;28;20439;-46
2022/04/15 04:12:50;;;;;;;7.40;7.23;;;21.20;68.80;;;;;;5071895;28;20479;-46
2022/04/15 04:15:18;;;;;;;7.80;7.60;;;21.10;68.60;;;;;;5071800;28;20459;-48
2022/04/15 04:17:46;;;;;;;8.20;8.00;;;21.20;69.00;;;;;;5071695;28;20447;-51
2022/04/15 04:20:13;;;;;;;6.77;6.57;;;21.20;69.10;;;;;;5071773;28;20942;-48
2022/04/15 04:22:41;;;;;;;7.20;7.00;;;21.20;68.90;;;;;;5071685;28;20464;-48
2022/04/15 04:25:10;;;;;;;6.63;6.47;;;21.20;68.80;;;;;;5071779;28;20444;-48
2022/04/15 04:27:37;;;;;;;7.50;7.20;;;21.20;68.80;;;;;;5071597;28;20444;-50
2022/04/15 04:30:05;;;;;;;7.37;7.17;;;21.20;68.80;;;;;;5071590;28;20447;-49
2022/04/15 04:32:34;;;;;;;6.60;6.50;;;21.20;69.20;;;;;;5071528;28;20490;-48
2022/04/15 04:35:01;;;;;;;6.70;6.60;;;21.20;68.50;;;;;;5071505;28;20455;-47
2022/04/15 04:37:27;;;;;;;6.67;6.47;;;21.20;68.60;;;;;;5071583;28;20444;-49
2022/04/15 04:39:54;;;;;;;6.80;6.70;;;21.20;68.60;;;;;;5071493;28;20977;-49
2022/04/15 04:42:22;;;;;;;7.10;6.90;;;21.20;68.60;;;;;;5071464;28;20467;-47
2022/04/15 04:44:50;;;;;;;6.90;6.70;;;21.10;68.50;;;;;;5071572;28;20443;-48
2022/04/15 04:47:17;;;;;;;6.67;6.47;;;21.10;68.50;;;;;;5071625;28;20443;-49
2022/04/15 04:49:45;;;;;;;8.10;7.60;;;21.20;68.40;;;;;;5071478;28;20455;-48
2022/04/15 04:52:12;;;;;;;6.90;6.80;;;21.20;68.40;;;;;;5071408;28;20487;-48
2022/04/15 04:54:39;;;;;;;6.63;6.43;;;21.20;68.50;;;;;;5071521;28;20823;-50
2022/04/15 04:57:06;;;;;;;7.00;6.80;;;21.20;68.40;;;;;;5071215;28;20436;-48
2022/04/15 04:59:33;;;;;;;6.87;6.67;;;21.20;68.60;;;;;;5071571;28;20443;-50
2022/04/15 05:02:00;;;;;;;7.10;6.90;;;21.20;68.70;;;;;;5071302;28;20471;-50
2022/04/15 05:04:27;;;;;;;7.77;7.57;;;21.20;68.60;;;;;;5072706;28;20447;-46
2022/04/15 05:06:55;;;;;;;7.67;7.47;;;21.30;68.70;;;;;;5075251;28;20815;-49
2022/04/15 05:09:22;;;;;;;7.80;7.60;;;21.40;68.60;;;;;;5075456;28;20443;-49
2022/04/15 05:11:51;;;;;;;8.20;7.97;;;21.30;68.60;;;;;;5075317;28;20493;-49
2022/04/15 05:14:18;;;;;;;9.83;9.47;;;21.30;68.70;;;;;;5075359;28;20909;-49
2022/04/15 05:16:45;;;;;;;8.20;8.00;;;21.30;69.80;;;;;;5075386;28;20848;-51
2022/04/15 05:19:11;;;;;;;8.97;8.77;;;21.30;68.80;;;;;;5075159;28;20930;-52
2022/04/15 05:21:38;;;;;;;9.53;9.23;;;21.30;69.20;;;;;;5075408;28;20459;-50
2022/04/15 05:24:07;;;;;;;7.90;7.80;;;21.20;69.30;;;;;;5075156;28;20565;-53
2022/04/15 05:26:34;;;;;;;8.90;8.63;;;21.20;69.20;;;;;;5074926;28;20447;-51
2022/04/15 05:29:01;;;;;;;8.93;8.63;;;21.20;69.10;;;;;;5074975;28;20807;-51
2022/04/15 05:31:28;;;;;;;8.30;8.10;;;21.20;69.10;;;;;;5074665;28;20843;-54
2022/04/15 05:33:55;;;;;;;8.10;7.90;;;21.20;69.00;;;;;;5074960;28;20810;-54
2022/04/15 05:36:22;;;;;;;8.77;8.57;;;21.20;68.80;;;;;;5074582;28;20840;-53
2022/04/15 05:38:48;;;;;;;7.53;7.40;;;21.20;68.80;;;;;;5074880;28;20443;-53
2022/04/15 05:41:16;;;;;;;9.07;8.80;;;21.20;68.50;;;;;;5074743;28;20930;-50
2022/04/15 05:43:43;;;;;;;8.80;8.60;;;21.20;68.60;;;;;;5074623;28;20452;-55
2022/04/15 05:46:10;;;;;;;8.33;8.13;;;21.20;68.60;;;;;;5074596;28;20444;-51
2022/04/15 05:48:37;;;;;;;7.83;7.63;;;21.20;68.40;;;;;;5074571;28;20505;-50
2022/04/15 05:51:04;;;;;;;8.57;8.37;;;21.20;68.40;;;;;;5074434;28;20478;-54
2022/04/15 05:53:31;;;;;;;8.43;8.13;;;21.20;68.30;;;;;;5074475;28;20970;-51
2022/04/15 05:55:57;;;;;;;9.13;8.63;;;21.20;68.10;;;;;;5074618;28;20447;-50
2022/04/15 05:58:26;;;;;;;8.33;8.13;;;21.20;68.30;;;;;;5074331;28;20446;-53
2022/04/15 06:00:53;;;;;;;8.67;8.33;;;21.20;68.30;;;;;;5074478;28;20447;-51
2022/04/15 06:03:20;;;;;;;7.43;7.23;;;21.20;68.30;;;;;;5092445;22;20849;-53
2022/04/15 06:05:47;;;;;;;8.17;7.97;;;21.20;68.30;;;;;;5067779;28;20439;-51
2022/04/15 06:08:13;;;;;;;8.23;8.03;;;21.20;68.20;;;;;;5074294;28;20439;-53
2022/04/15 06:10:40;;;;;;;9.40;9.10;;;21.20;68.10;;;;;;5074252;28;20486;-50
2022/04/15 06:13:09;;;;;;;9.40;9.20;;;21.20;67.90;;;;;;5086669;28;20482;-50
2022/04/15 06:15:41;;;;;;;7.90;7.60;;;21.20;67.80;;;;;;5093296;28;20496;-51
2022/04/15 06:18:08;;;;;;;8.50;8.30;;;21.20;68.00;;;;;;5094274;28;20964;-49
2022/04/15 06:20:35;;;;;;;8.50;8.27;;;21.20;67.80;;;;;;5094283;28;20444;-51
2022/04/15 06:23:02;;;;;;;8.70;8.47;;;21.20;67.80;;;;;;5094611;28;20458;-49
2022/04/15 06:25:29;;;;;;;8.23;8.03;;;21.20;67.70;;;;;;5094088;28;20443;-51
2022/04/15 06:27:55;;;;;;;8.17;7.97;;;21.20;67.70;;;;;;5094485;28;20435;-52
2022/04/15 06:30:22;;;;;;;8.20;8.00;;;21.20;67.70;;;;;;5094226;28;20443;-52
2022/04/15 06:32:50;;;;;;;8.50;8.20;;;21.20;67.50;;;;;;5093911;28;20486;-49
2022/04/15 06:35:17;;;;;;;8.10;7.90;;;21.20;67.50;;;;;;5093957;28;20451;-50
2022/04/15 06:37:44;;;;;;;8.23;8.03;;;21.20;67.50;;;;;;5094003;28;20447;-50
2022/04/15 06:40:12;;;;;;;8.33;8.13;;;21.20;67.40;;;;;;5094068;28;20454;-51
2022/04/15 06:42:39;;;;;;;8.30;8.00;;;21.20;67.80;;;;;;5093980;28;20459;-50
2022/04/15 06:45:06;;;;;;;8.60;8.40;;;21.20;67.80;;;;;;5094077;28;20442;-54
2022/04/15 06:47:33;;;;;;;8.30;8.00;;;21.20;67.50;;;;;;5093520;28;20849;-55
2022/04/15 06:50:01;;;;;;;8.87;8.67;;;21.20;67.50;;;;;;5093743;28;20451;-49
2022/04/15 06:52:28;;;;;;;8.63;8.43;;;21.20;67.50;;;;;;5093525;28;20482;-53
2022/04/15 06:54:54;;;;;;;9.00;8.80;;;21.20;67.50;;;;;;5093635;28;20453;-51
2022/04/15 06:57:21;;;;;;;9.00;8.70;;;21.20;67.30;;;;;;5093305;28;20488;-51
2022/04/15 06:59:48;;;;;;;9.10;8.80;;;21.20;67.30;;;;;;5093561;28;20447;-50
2022/04/15 07:02:15;;;;;;;8.40;8.20;;;21.20;67.30;;;;;;5093190;28;20466;-51
2022/04/15 07:04:42;;;;;;;8.30;8.10;;;21.20;67.40;;;;;;5093718;28;20435;-51
2022/04/15 07:07:10;;;;;;;9.53;9.17;;;21.20;67.30;;;;;;5093200;28;20503;-50
2022/04/15 07:09:37;;;;;;;8.60;8.40;;;21.20;67.20;;;;;;5093356;28;20449;-53
2022/04/15 07:12:04;;;;;;;9.20;9.00;;;21.20;67.10;;;;;;5093176;28;20522;-54
2022/04/15 07:14:33;;;;;;;8.67;8.47;;;21.20;67.40;;;;;;5093483;28;20446;-50
2022/04/15 07:16:59;;;;;;;9.33;9.03;;;21.20;67.20;;;;;;5092953;28;20508;-50
2022/04/15 07:19:27;;;;;;;9.63;9.33;;;21.20;67.00;;;;;;5093317;28;20453;-50
2022/04/15 07:21:53;;;;;;;9.37;9.13;;;21.20;67.10;;;;;;5093074;28;20445;-50
2022/04/15 07:24:21;;;;;;;9.10;8.80;;;21.20;67.00;;;;;;5093086;28;20537;-52
2022/04/15 07:26:48;;;;;;;9.43;9.13;;;21.20;67.10;;;;;;5092349;28;20449;-51
2022/04/15 07:29:15;;;;;;;9.53;9.23;;;21.20;67.20;;;;;;5092892;28;20446;-49
2022/04/15 07:31:42;;;;;;;8.87;8.67;;;21.20;67.10;;;;;;5092786;28;20482;-51
2022/04/15 07:34:09;;;;;;;8.90;8.70;;;21.20;66.90;;;;;;5092954;28;20926;-50
2022/04/15 07:36:48;;;;;;;9.63;9.23;;;21.20;67.10;;;;;;5092583;28;20447;-52
2022/04/15 07:39:15;;;;;;;9.43;9.23;;;21.20;67.10;;;;;;5092811;28;20792;-49
2022/04/15 07:41:45;;;;;;;9.83;9.63;;;21.20;66.80;;;;;;5092610;28;20439;-49
2022/04/15 07:44:13;;;;;;;9.93;9.63;;;21.20;66.70;;;;;;5092682;28;20534;-51
2022/04/15 07:46:41;;;;;;;10.20;9.90;;;21.20;66.90;;;;;;5092471;28;20446;-56
2022/04/15 07:49:08;;;;;;;10.20;9.90;;;21.20;66.70;;;;;;5092858;28;20455;-52
2022/04/15 07:51:36;;;;;;;9.93;9.67;;;21.20;67.00;;;;;;5092478;28;20814;-53
2022/04/15 07:54:04;;;;;;;9.77;9.50;;;21.20;66.90;;;;;;5092560;28;20823;-52
2022/04/15 07:56:32;;;;;;;9.87;9.57;;;21.20;66.70;;;;;;5092550;28;20496;-53
2022/04/15 07:59:00;;;;;;;9.43;9.13;;;21.20;66.90;;;;;;5092414;28;20446;-51
2022/04/15 08:01:27;;;;;;;9.37;9.10;;;21.20;66.70;;;;;;5092365;28;20456;-52
2022/04/15 08:03:54;;;;;;;9.97;9.67;;;21.20;66.70;;;;;;5092446;28;20520;-51
2022/04/15 08:06:22;;;;;;;9.93;9.63;;;21.20;66.70;;;;;;5092023;28;20439;-52
2022/04/15 08:08:49;;;;;;;9.73;9.43;;;21.20;66.50;;;;;;5092337;28;20839;-54
2022/04/15 08:11:16;;;;;;;10.87;10.40;;;21.20;66.60;;;;;;5092561;28;20446;-52
2022/04/15 08:13:42;;;;;;;9.87;9.57;;;21.20;66.30;;;;;;5092112;28;20482;-51
2022/04/15 08:16:11;;;;;;;8.63;8.43;;;21.30;66.50;;;;;;5092100;28;20443;-53
2022/04/15 08:18:38;;;;;;;9.10;8.80;;;21.30;66.40;;;;;;5092137;28;20457;-53
2022/04/15 08:21:05;;;;;;;9.53;9.23;;;21.20;66.40;;;;;;5092046;28;20447;-52
2022/04/15 08:23:32;;;;;;;10.20;9.80;;;21.30;66.50;;;;;;5092042;28;20645;-49
2022/04/15 08:25:58;;;;;;;9.53;9.23;;;21.30;66.10;;;;;;5091923;28;20825;-52
2022/04/15 08:28:25;;;;;;;9.37;9.07;;;21.30;66.20;;;;;;5091773;28;20449;-50
2022/04/15 08:30:52;;;;;;;9.03;8.73;;;21.20;66.10;;;;;;5091972;28;20446;-52
2022/04/15 08:33:20;;;;;;;8.97;8.67;;;21.30;66.20;;;;;;5091706;28;20495;-54
2022/04/15 08:35:48;;;;;;;8.80;8.60;;;21.30;66.00;;;;;;5091640;28;20563;-51
2022/04/15 08:38:14;;;;;;;9.37;9.07;;;21.30;66.00;;;;;;5091478;28;20445;-51
2022/04/15 08:40:44;;;;;;;9.97;9.67;;;21.30;65.90;;;;;;5091303;28;20525;-51
2022/04/15 08:43:11;;;;;;;10.00;9.70;;;21.30;65.60;;;;;;5091660;28;20461;-54
2022/04/15 08:45:41;;;;;;;9.70;9.40;;;21.30;65.80;;;;;;5091758;28;20573;-51
2022/04/15 08:48:10;;;;;;;9.83;9.53;;;21.30;65.70;;;;;;5091652;28;20443;-52
2022/04/15 08:50:39;;;;;;;10.10;9.70;;;21.30;65.70;;;;;;5091668;28;20438;-51
2022/04/15 08:53:06;;;;;;;10.60;10.10;;;21.40;65.80;;;;;;5091466;28;20498;-51
2022/04/15 08:55:33;;;;;;;10.00;9.70;;;21.40;65.60;;;;;;5091678;28;20443;-51
2022/04/15 08:57:59;;;;;;;10.10;9.80;;;21.40;65.50;;;;;;5091471;28;20442;-51
2022/04/15 09:00:27;;;;;;;10.60;10.20;;;21.40;65.60;;;;;;5091540;28;20795;-51
2022/04/15 09:02:56;;;;;;;9.63;9.33;;;21.40;65.50;;;;;;5091291;28;20505;-50
2022/04/15 09:05:24;;;;;;;10.50;10.10;;;21.40;65.60;;;;;;5091394;28;20473;-51
2022/04/15 09:08:04;;;;;;;10.33;10.03;;;21.40;65.50;;;;;;5091522;28;20453;-52
2022/04/15 09:10:31;;;;;;;9.90;9.60;;;21.40;65.30;;;;;;5091594;28;20450;-50
2022/04/15 09:12:58;;;;;;;9.53;9.23;;;21.40;65.30;;;;;;5091279;28;20494;-50
2022/04/15 09:15:25;;;;;;;10.10;9.80;;;21.40;65.40;;;;;;5091368;28;20446;-52
2022/04/15 09:17:54;;;;;;;9.20;8.90;;;21.40;65.20;;;;;;5091270;28;20547;-49
2022/04/15 09:20:22;;;;;;;10.17;9.87;;;21.40;65.10;;;;;;5080052;28;20462;-49
2022/04/15 09:22:55;;;;;;;9.70;9.40;;;21.40;65.00;;;;;;5069418;28;20467;-49
2022/04/15 09:25:29;;;;;;;9.83;9.53;;;21.50;65.10;;;;;;5067209;28;20448;-48
2022/04/15 09:27:57;;;;;;;9.53;9.27;;;21.50;65.40;;;;;;5071075;28;20542;-48
2022/04/15 09:30:39;;;;;;;9.80;9.50;;;21.50;65.30;;;;;;5070539;28;20447;-48
2022/04/15 09:33:06;;;;;;;10.37;9.97;;;21.60;65.50;;;;;;5070920;28;20487;-49
2022/04/15 09:35:34;;;;;;;11.20;10.60;;;21.60;65.40;;;;;;5068184;28;20444;-51
2022/04/15 09:38:04;;;;;;;10.47;10.07;;;21.70;65.60;;;;;;5070563;28;20505;-48
2022/04/15 09:40:35;;;;;;;10.73;10.23;;;21.70;65.80;;;;;;5071491;28;20514;-48
2022/04/15 09:43:04;;;;;;;11.50;11.00;;;21.60;66.00;;;;;;5059518;28;20465;-49
2022/04/15 09:45:34;;;;;;;11.03;10.63;;;21.60;65.90;;;;;;5053027;28;20533;-51
2022/04/15 09:48:03;;;;;;;11.30;10.90;;;21.70;65.90;;;;;;5068808;28;20968;-48
2022/04/15 09:50:35;;;;;;;10.97;10.57;;;21.70;66.00;;;;;;5072144;28;20879;-50
2022/04/15 09:53:12;;;;;;;11.00;10.60;;;21.80;66.20;;;;;;5074306;28;20996;-48
2022/04/15 09:55:41;;;;;;;12.13;11.63;;;21.80;66.20;;;;;;5074380;28;20865;-49
2022/04/15 09:58:11;;;;;;;10.47;10.07;;;21.90;66.50;;;;;;5074542;28;20443;-47
2022/04/15 10:00:38;;;;;;;11.30;10.87;;;21.90;66.50;;;;;;5074142;28;20490;-47
2022/04/15 10:03:08;;;;;;;10.47;9.97;;;21.90;66.70;;;;;;5074135;28;20498;-50
2022/04/15 10:05:36;;;;;;;10.93;10.43;;;21.90;67.50;;;;;;5074107;28;20451;-49
2022/04/15 10:08:04;;;;;;;11.60;11.10;;;21.90;66.80;;;;;;5074284;28;20439;-47
2022/04/15 10:10:33;;;;;;;11.20;10.80;;;21.90;66.90;;;;;;5074391;28;20440;-48
2022/04/15 10:13:01;;;;;;;11.20;10.80;;;21.90;67.10;;;;;;5071297;28;20475;-47
2022/04/15 10:15:29;;;;;;;10.87;10.47;;;22.00;67.20;;;;;;5073965;28;20503;-48
2022/04/15 10:17:57;;;;;;;12.03;11.63;;;22.00;67.30;;;;;;5073991;28;20810;-49
2022/04/15 10:20:24;;;;;;;12.17;11.37;;;22.00;67.30;;;;;;5059501;28;20469;-50
2022/04/15 10:22:51;;;;;;;12.13;11.53;;;22.00;67.40;;;;;;5053917;28;20460;-49
2022/04/15 10:25:18;;;;;;;10.93;10.53;;;22.00;67.10;;;;;;5053916;28;20448;-49
2022/04/15 10:27:46;;;;;;;11.27;10.87;;;22.00;67.30;;;;;;5053789;28;20455;-49
2022/04/15 10:30:18;;;;;;;12.00;11.50;;;22.00;67.40;;;;;;5054123;28;20451;-49
2022/04/15 10:32:50;;;;;;;11.23;10.73;;;22.00;67.10;;;;;;5069632;28;20483;-47
2022/04/15 10:35:22;;;;;;;10.80;10.40;;;21.90;67.40;;;;;;5073724;28;20443;-48
2022/04/15 10:37:55;;;;;;;11.00;10.60;;;21.90;67.30;;;;;;5073708;28;20447;-48
2022/04/15 10:40:24;;;;;;;11.80;11.30;;;21.90;67.10;;;;;;5073657;28;20546;-47
2022/04/15 10:42:53;;;;;;;12.67;12.07;;;21.90;67.20;;;;;;5073626;28;20974;-48
2022/04/15 10:45:27;;;;;;;11.50;11.00;;;22.00;67.80;;;;;;5073647;28;20446;-49
2022/04/15 10:48:00;;;;;;;11.50;11.00;;;22.00;68.40;;;;;;5073353;28;20451;-48
2022/04/15 10:50:29;;;;;;;11.63;11.07;;;22.00;69.10;;;;;;5053640;28;20801;-47
2022/04/15 10:53:30;;;;;;;10.73;10.23;;;22.10;69.40;;;;;;5072881;28;20487;-49
2022/04/15 10:56:07;;;;;;;10.15;9.55;;;22.10;69.20;;;;;;5064291;28;20438;-47
2022/04/15 11:01:13;;;;;;;11.93;11.37;;;22.10;69.90;;;;;;5073105;28;20197;-50
2022/04/15 11:01:35;;;;;;;10.70;10.30;;;22.20;69.70;;;;;;5052627;28;20428;-50
2022/04/15 11:04:08;;;;;;;11.17;10.67;;;22.20;69.40;;;;;;5067664;28;20463;-49
2022/04/15 11:06:35;;;;;;;11.97;11.27;;;22.20;69.30;;;;;;5073159;28;20280;-48
2022/04/15 11:09:15;;;;;;;12.20;11.60;;;22.20;69.00;;;;;;5072957;28;20826;-49
2022/04/15 11:11:45;;;;;;;11.93;11.40;;;22.20;68.80;;;;;;5073048;28;21403;-52
2022/04/15 11:14:16;;;;;;;11.50;11.00;;;22.20;68.90;;;;;;5072262;28;20475;-49
2022/04/15 11:16:46;;;;;;;12.30;11.80;;;22.20;68.60;;;;;;5072830;28;20447;-47
2022/04/15 11:19:13;;;;;;;11.67;11.10;;;22.20;69.00;;;;;;5071681;28;20440;-50
2022/04/15 11:21:40;;;;;;;11.70;11.10;;;22.20;68.80;;;;;;5072525;28;20451;-50
2022/04/15 11:24:09;;;;;;;10.87;10.27;;;22.20;68.90;;;;;;5073185;28;20900;-54
2022/04/15 11:26:37;;;;;;;12.13;11.13;;;22.20;68.30;;;;;;5072717;28;20874;-55
2022/04/15 11:29:06;;;;;;;11.63;11.10;;;22.20;68.70;;;;;;5072780;28;20458;-55
2022/04/15 11:31:36;;;;;;;11.57;11.10;;;22.10;68.50;;;;;;5052745;28;20445;-52
2022/04/15 11:34:05;;;;;;;12.87;11.97;;;22.20;69.50;;;;;;5052602;28;20483;-49
2022/04/15 11:36:33;;;;;;;24.40;15.43;;;22.20;74.30;;;;;;5052419;28;20459;-50
2022/04/15 11:39:01;;;;;;;16.87;15.27;;;22.30;86.60;;;;;;5052574;28;20449;-48
2022/04/15 11:41:29;;;;;;;26.50;17.37;;;22.40;96.50;;;;;;5072193;28;20466;-50
2022/04/15 11:43:59;;;;;;;22.27;16.20;;;22.40;99.90;;;;;;5071694;28;20485;-48
2022/04/15 11:46:26;;;;;;;25.70;16.53;;;22.50;99.90;;;;;;5071424;28;20953;-50
2022/04/15 11:48:56;;;;;;;24.93;15.50;;;22.50;99.90;;;;;;5072080;28;20460;-49
2022/04/15 11:51:25;;;;;;;17.77;15.97;;;22.60;99.90;;;;;;5072106;28;20452;-49
2022/04/15 11:53:54;;;;;;;22.23;18.03;;;22.60;99.90;;;;;;5072167;28;20483;-50
2022/04/15 11:56:26;;;;;;;18.93;15.27;;;22.60;99.90;;;;;;5072085;28;20447;-49
2022/04/15 11:58:53;;;;;;;21.30;16.93;;;22.60;99.90;;;;;;5071980;28;20855;-49
2022/04/15 12:01:30;;;;;;;18.23;14.70;;;22.80;99.90;;;;;;5072159;28;20826;-49
2022/04/15 12:03:59;;;;;;;21.43;16.30;;;22.90;99.90;;;;;;5072395;28;21015;-49
2022/04/15 12:06:25;;;;;;;17.40;15.90;;;22.80;99.90;;;;;;5071649;28;20815;-50
2022/04/15 12:08:53;;;;;;;18.07;14.47;;;22.80;99.90;;;;;;5072157;28;20805;-50
2022/04/15 12:11:22;;;;;;;16.73;15.10;;;22.80;99.90;;;;;;5071958;28;20478;-48
2022/04/15 12:13:54;;;;;;;23.47;16.13;;;22.80;99.90;;;;;;5071672;28;20487;-49
2022/04/15 12:16:21;;;;;;;16.67;14.80;;;22.80;99.90;;;;;;5071496;28;20447;-51
2022/04/15 12:18:48;;;;;;;15.77;14.53;;;22.80;99.90;;;;;;5071883;28;20444;-51
2022/04/15 12:21:17;;;;;;;16.50;14.90;;;22.90;99.90;;;;;;5071638;28;21037;-49
2022/04/15 12:24:02;;;;;;;17.00;14.53;;;23.00;99.90;;;;;;5071623;28;20499;-50
2022/04/15 12:26:29;;;;;;;14.53;13.33;;;23.10;99.90;;;;;;5071319;28;20500;-53
2022/04/15 12:31:48;;;;;;;16.83;15.30;;;23.30;97.40;;;;;;5072096;28;20771;-52
2022/04/15 12:34:15;;;;;;;16.37;14.87;;;23.30;96.60;;;;;;5071659;28;20895;-51
2022/04/15 12:36:45;;;;;;;14.90;13.57;;;23.30;96.70;;;;;;5071200;28;20526;-50
2022/04/15 12:39:13;;;;;;;14.83;13.50;;;23.40;95.60;;;;;;5071666;28;20471;-52
2022/04/15 12:41:43;;;;;;;14.60;13.50;;;23.50;94.20;;;;;;5071580;28;20452;-50
2022/04/15 12:44:20;;;;;;;16.20;14.23;;;23.60;93.10;;;;;;5071676;28;20820;-51
2022/04/15 12:46:49;;;;;;;15.47;14.07;;;23.60;92.10;;;;;;5071078;28;20444;-51
2022/04/15 12:49:27;;;;;;;16.17;14.80;;;23.60;91.90;;;;;;5071530;28;20448;-51